Time;durP1;ratioP1;P1;durP2;ratioP2;P2;SDS_P1;SDS_P2;PMS_P1;PMS_P2;Temp;Humidity;BMP_temperature;BMP_pressure;BME280_temperature;BME280_humidity;BME280_pressure;Samples;Min_cycle;Max_cycle;Signal;HPM_P1;HPM_P2
2021/11/15 00:01:56;;;;;;;;;;;;;;;;;;5048462;28;19913;-49
2021/11/15 00:04:22;;;;;;;;;;;;;;;;;;5053325;28;19912;-47
2021/11/15 00:06:48;;;;;;;;;;;;;;;;;;5052017;28;19912;-49
2021/11/15 00:09:14;;;;;;;;;;;;;;;;;;5061888;28;19982;-49
2021/11/15 00:11:40;;;;;;;;;;;;;;;;;;5068195;28;19921;-46
2021/11/15 00:14:06;;;;;;;;;;;;;;;;;;5048435;28;20528;-45
2021/11/15 00:16:32;;;;;;;;;;;;;;;;;;5048510;28;19908;-47
2021/11/15 00:18:58;;;;;;;;;;;;;;;;;;5047776;28;19913;-46
2021/11/15 00:21:24;;;;;;;;;;;;;;;;;;5047801;28;19916;-47
2021/11/15 00:23:50;;;;;;;;;;;;;;;;;;5048064;28;19912;-47
2021/11/15 00:26:16;;;;;;;;;;;;;;;;;;5067940;28;19932;-48
2021/11/15 00:28:42;;;;;;;;;;;;;;;;;;5068263;28;19965;-49
2021/11/15 00:31:08;;;;;;;;;;;;;;;;;;5067976;28;20391;-48
2021/11/15 00:33:34;;;;;;;;;;;;;;;;;;5066847;28;19917;-49
2021/11/15 00:36:00;;;;;;;;;;;;;;;;;;5065836;28;19958;-46
2021/11/15 00:38:26;;;;;;;;;;;;;;;;;;5066187;28;19948;-48
2021/11/15 00:40:52;;;;;;;;;;;;;;;;;;5053530;28;19949;-49
2021/11/15 00:43:18;;;;;;;;;;;;;;;;;;5047379;28;19908;-47
2021/11/15 00:45:44;;;;;;;;;;;;;;;;;;5047889;28;19909;-48
2021/11/15 00:48:10;;;;;;;;;;;;;;;;;;5047071;28;19940;-49
2021/11/15 00:50:36;;;;;;;;;;;;;;;;;;5047259;28;19913;-46
2021/11/15 00:53:02;;;;;;;;;;;;;;;;;;5049368;28;20548;-46
2021/11/15 00:55:28;;;;;;;;;;;;;;;;;;5063460;28;19909;-47
2021/11/15 00:57:54;;;;;;;;;;;;;;;;;;5063741;28;19917;-48
2021/11/15 01:00:20;;;;;;;;;;;;;;;;;;5047421;28;19920;-48
2021/11/15 01:02:46;;;;;;;;;;;;;;;;;;5065235;28;20019;-46
2021/11/15 01:05:12;;;;;;;;;;;;;;;;;;5060367;28;19913;-46
2021/11/15 01:07:38;;;;;;;;;;;;;;;;;;5058568;28;19940;-45
2021/11/15 01:10:05;;;;;;;;;;;;;;;;;;5068219;28;19912;-48
2021/11/15 01:12:31;;;;;;;;;;;;;;;;;;5054879;28;19931;-45
2021/11/15 01:14:57;;;;;;;;;;;;;;;;;;5045015;28;19913;-47
2021/11/15 01:17:23;;;;;;;;;;;;;;;;;;5066687;28;19912;-46
2021/11/15 01:19:49;;;;;;;;;;;;;;;;;;5060913;28;20382;-48
2021/11/15 01:22:15;;;;;;;;;;;;;;;;;;5046568;28;19913;-46
2021/11/15 01:24:41;;;;;;;;;;;;;;;;;;5047166;28;19920;-45
2021/11/15 01:27:07;;;;;;;;;;;;;;;;;;5046857;28;20339;-48
2021/11/15 01:29:33;;;;;;;;;;;;;;;;;;5045915;28;19909;-49
2021/11/15 01:32:00;;;;;;;;;;;;;;;;;;5052460;28;19958;-46
2021/11/15 01:34:26;;;;;;;;;;;;;;;;;;5066020;28;19912;-47
2021/11/15 01:36:52;;;;;;;;;;;;;;;;;;5067055;28;19953;-46
2021/11/15 01:39:18;;;;;;;;;;;;;;;;;;5065207;28;20005;-49
2021/11/15 01:41:43;;;;;;;;;;;;;;;;;;5055607;28;19913;-47
2021/11/15 01:44:09;;;;;;;;;;;;;;;;;;5052211;28;19921;-46
2021/11/15 01:46:35;;;;;;;;;;;;;;;;;;5050554;28;19921;-48
2021/11/15 01:49:01;;;;;;;;;;;;;;;;;;5059853;28;19921;-46
2021/11/15 01:51:27;;;;;;;;;;;;;;;;;;5064937;28;20032;-47
2021/11/15 01:53:53;;;;;;;;;;;;;;;;;;5065903;28;20429;-47
2021/11/15 01:56:20;;;;;;;;;;;;;;;;;;5063045;28;19928;-49
2021/11/15 01:58:46;;;;;;;;;;;;;;;;;;5064208;28;19920;-46
2021/11/15 02:01:13;;;;;;;;;;;;;;;;;;5063532;28;20342;-47
2021/11/15 02:03:38;;;;;;;;;;;;;;;;;;5065223;28;19948;-47
2021/11/15 02:06:06;;;;;;;;;;;;;;;;;;5063194;28;20362;-48
2021/11/15 02:08:32;;;;;;;;;;;;;;;;;;5044731;28;19940;-46
2021/11/15 02:10:58;;;;;;;;;;;;;;;;;;5044875;28;20259;-45
2021/11/15 02:13:25;;;;;;;;;;;;;;;;;;5045277;28;19955;-48
2021/11/15 02:15:51;;;;;;;;;;;;;;;;;;5045791;28;19954;-45
2021/11/15 02:18:17;;;;;;;;;;;;;;;;;;5047229;28;19956;-48
2021/11/15 02:20:43;;;;;;;;;;;;;;;;;;5064679;28;20426;-48
2021/11/15 02:23:10;;;;;;;;;;;;;;;;;;5065114;28;20379;-49
2021/11/15 02:25:36;;;;;;;;;;;;;;;;;;5065099;28;19912;-48
2021/11/15 02:28:02;;;;;;;;;;;;;;;;;;5064960;28;19920;-47
2021/11/15 02:30:28;;;;;;;;;;;;;;;;;;5064461;28;20341;-45
2021/11/15 02:32:54;;;;;;;;;;;;;;;;;;5061510;28;19908;-49
2021/11/15 02:35:21;;;;;;;;;;;;;;;;;;5058608;28;19916;-48
2021/11/15 02:37:46;;;;;;;;;;;;;;;;;;5050014;28;20353;-49
2021/11/15 02:40:13;;;;;;;;;;;;;;;;;;5058684;28;19917;-46
2021/11/15 02:42:39;;;;;;;;;;;;;;;;;;5068504;28;20398;-48
2021/11/15 02:45:05;;;;;;;;;;;;;;;;;;5069289;28;19913;-47
2021/11/15 02:47:31;;;;;;;;;;;;;;;;;;5067582;28;20341;-49
2021/11/15 02:49:57;;;;;;;;;;;;;;;;;;5068729;28;19999;-48
2021/11/15 02:52:23;;;;;;;;;;;;;;;;;;5066479;28;19999;-45
2021/11/15 02:54:49;;;;;;;;;;;;;;;;;;5068699;28;19915;-47
2021/11/15 02:57:15;;;;;;;;;;;;;;;;;;5068291;28;20218;-48
2021/11/15 02:59:41;;;;;;;;;;;;;;;;;;5068446;28;19962;-47
2021/11/15 03:02:08;;;;;;;;;;;;;;;;;;5061612;28;19927;-48
2021/11/15 03:04:34;;;;;;;;;;;;;;;;;;5056322;28;20479;-47
2021/11/15 03:07:00;;;;;;;;;;;;;;;;;;5068484;28;20007;-45
2021/11/15 03:09:26;;;;;;;;;;;;;;;;;;5068106;28;19983;-45
2021/11/15 03:11:53;;;;;;;;;;;;;;;;;;5068088;28;19962;-49
2021/11/15 03:14:19;;;;;;;;;;;;;;;;;;5066683;28;19923;-48
2021/11/15 03:16:45;;;;;;;;;;;;;;;;;;5066875;28;19920;-45
2021/11/15 03:19:11;;;;;;;;;;;;;;;;;;5067833;28;19944;-47
2021/11/15 03:21:37;;;;;;;;;;;;;;;;;;5068363;28;19932;-49
2021/11/15 03:24:03;;;;;;;;;;;;;;;;;;5065798;28;19912;-47
2021/11/15 03:26:29;;;;;;;;;;;;;;;;;;5066497;28;20006;-49
2021/11/15 03:28:54;;;;;;;;;;;;;;;;;;5067801;28;19930;-47
2021/11/15 03:31:20;;;;;;;;;;;;;;;;;;5067566;28;19909;-48
2021/11/15 03:33:47;;;;;;;;;;;;;;;;;;5061003;28;19916;-49
2021/11/15 03:36:13;;;;;;;;;;;;;;;;;;5048032;28;19909;-47
2021/11/15 03:38:40;;;;;;;;;;;;;;;;;;5047755;28;19917;-48
2021/11/15 03:41:06;;;;;;;;;;;;;;;;;;5048164;28;20455;-47
2021/11/15 03:43:32;;;;;;;;;;;;;;;;;;5047533;28;19913;-49
2021/11/15 03:45:59;;;;;;;;;;;;;;;;;;5047446;28;19917;-50
2021/11/15 03:48:26;;;;;;;;;;;;;;;;;;5047073;28;19948;-50
2021/11/15 03:50:55;;;;;;;;;;;;;;;;;;5047458;28;19924;-48
2021/11/15 03:53:21;;;;;;;;;;;;;;;;;;5046665;28;19915;-47
2021/11/15 03:55:47;;;;;;;;;;;;;;;;;;5047648;28;19913;-50
2021/11/15 03:58:12;;;;;;;;;;;;;;;;;;5052214;28;19920;-49
2021/11/15 04:00:41;;;;;;;;;;;;;;;;;;5067937;28;19915;-45
2021/11/15 04:03:10;;;;;;;;;;;;;;;;;;5066460;28;19917;-47
2021/11/15 04:05:37;;;;;;;;;;;;;;;;;;5067407;28;19916;-47
2021/11/15 04:08:03;;;;;;;;;;;;;;;;;;5067179;28;20365;-48
2021/11/15 04:10:29;;;;;;;;;;;;;;;;;;5065593;28;19917;-47
2021/11/15 04:12:55;;;;;;;;;;;;;;;;;;5065740;28;19970;-48
2021/11/15 04:15:21;;;;;;;;;;;;;;;;;;5067427;28;19920;-47
2021/11/15 04:17:47;;;;;;;;;;;;;;;;;;5067047;28;19969;-46
2021/11/15 04:20:13;;;;;;;;;;;;;;;;;;5065562;28;19912;-45
2021/11/15 04:22:39;;;;;;;;;;;;;;;;;;5051775;28;20058;-47
2021/11/15 04:25:04;;;;;;;;;;;;;;;;;;5047240;28;20003;-46
2021/11/15 04:27:30;;;;;;;;;;;;;;;;;;5046813;28;20376;-46
2021/11/15 04:29:57;;;;;;;;;;;;;;;;;;5046774;28;19917;-46
2021/11/15 04:32:23;;;;;;;;;;;;;;;;;;5055301;28;19999;-45
2021/11/15 04:34:49;;;;;;;;;;;;;;;;;;5067524;28;20336;-47
2021/11/15 04:37:16;;;;;;;;;;;;;;;;;;5055916;28;20411;-48
2021/11/15 04:39:42;;;;;;;;;;;;;;;;;;5046868;28;19917;-48
2021/11/15 04:42:09;;;;;;;;;;;;;;;;;;5057126;28;19912;-49
2021/11/15 04:44:35;;;;;;;;;;;;;;;;;;5067183;28;19948;-47
2021/11/15 04:47:00;;;;;;;;;;;;;;;;;;5064145;28;20190;-46
2021/11/15 04:49:26;;;;;;;;;;;;;;;;;;5066214;28;20340;-47
2021/11/15 04:51:52;;;;;;;;;;;;;;;;;;5066286;28;19920;-46
2021/11/15 04:54:19;;;;;;;;;;;;;;;;;;5064899;28;19918;-49
2021/11/15 04:56:45;;;;;;;;;;;;;;;;;;5065958;28;19909;-46
2021/11/15 04:59:11;;;;;;;;;;;;;;;;;;5066304;28;19923;-46
2021/11/15 05:01:37;;;;;;;;;;;;;;;;;;5066468;28;19912;-48
2021/11/15 05:04:03;;;;;;;;;;;;;;;;;;5064968;28;20563;-45
2021/11/15 05:06:29;;;;;;;;;;;;;;;;;;5063176;28;20276;-46
2021/11/15 05:08:55;;;;;;;;;;;;;;;;;;5065191;28;19913;-45
2021/11/15 05:11:21;;;;;;;;;;;;;;;;;;5065428;28;19916;-49
2021/11/15 05:13:47;;;;;;;;;;;;;;;;;;5066062;28;20313;-49
2021/11/15 05:16:12;;;;;;;;;;;;;;;;;;5064296;28;20307;-48
2021/11/15 05:18:38;;;;;;;;;;;;;;;;;;5066261;28;19935;-47
2021/11/15 05:21:04;;;;;;;;;;;;;;;;;;5065889;28;20277;-46
2021/11/15 05:23:30;;;;;;;;;;;;;;;;;;5056671;28;19917;-46
2021/11/15 05:25:56;;;;;;;;;;;;;;;;;;5045936;28;19962;-45
2021/11/15 05:28:22;;;;;;;;;;;;;;;;;;5045257;28;19958;-46
2021/11/15 05:30:48;;;;;;;;;;;;;;;;;;5045217;28;19925;-45
2021/11/15 05:33:14;;;;;;;;;;;;;;;;;;5045358;28;19909;-46
2021/11/15 05:35:40;;;;;;;;;;;;;;;;;;5046036;28;19913;-45
2021/11/15 05:38:06;;;;;;;;;;;;;;;;;;5045753;28;20384;-47
2021/11/15 05:40:32;;;;;;;;;;;;;;;;;;5044864;28;19919;-48
2021/11/15 05:42:57;;;;;;;;;;;;;;;;;;5062209;28;20003;-46
2021/11/15 05:45:23;;;;;;;;;;;;;;;;;;5064936;28;20376;-48
2021/11/15 05:47:49;;;;;;;;;;;;;;;;;;5064935;28;19935;-49
2021/11/15 05:50:15;;;;;;;;;;;;;;;;;;5065211;28;20362;-47
2021/11/15 05:52:43;;;;;;;;;;;;;;;;;;5064201;28;19919;-45
2021/11/15 05:55:10;;;;;;;;;;;;;;;;;;5065875;28;19908;-49
2021/11/15 05:57:36;;;;;;;;;;;;;;;;;;5065463;28;19916;-45
2021/11/15 06:00:01;;;;;;;;;;;;;;;;;;5065327;28;19912;-46
2021/11/15 06:02:27;;;;;;;;;;;;;;;;;;5064671;28;20407;-47
2021/11/15 06:04:53;;;;;;;;;;;;;;;;;;5063637;28;19958;-48
2021/11/15 06:07:19;;;;;;;;;;;;;;;;;;5064681;28;20306;-44
2021/11/15 06:09:45;;;;;;;;;;;;;;;;;;5064909;28;19916;-49
2021/11/15 06:12:12;;;;;;;;;;;;;;;;;;5064687;28;19920;-47
2021/11/15 06:14:38;;;;;;;;;;;;;;;;;;5065315;28;19912;-45
2021/11/15 06:17:04;;;;;;;;;;;;;;;;;;5063763;28;19936;-49
2021/11/15 06:19:30;;;;;;;;;;;;;;;;;;5064503;28;20425;-50
2021/11/15 06:21:56;;;;;;;;;;;;;;;;;;5063612;28;19958;-50
2021/11/15 06:24:22;;;;;;;;;;;;;;;;;;5064713;28;19916;-48
2021/11/15 06:26:48;;;;;;;;;;;;;;;;;;5063712;28;20028;-47
2021/11/15 06:29:14;;;;;;;;;;;;;;;;;;5062152;28;19922;-46
2021/11/15 06:31:40;;;;;;;;;;;;;;;;;;5063903;28;19909;-46
2021/11/15 06:34:06;;;;;;;;;;;;;;;;;;5065976;28;20388;-47
2021/11/15 06:36:32;;;;;;;;;;;;;;;;;;5063107;28;19939;-47
2021/11/15 06:38:59;;;;;;;;;;;;;;;;;;5064637;28;19916;-48
2021/11/15 06:41:25;;;;;;;;;;;;;;;;;;5063490;28;20312;-49
2021/11/15 06:43:50;;;;;;;;;;;;;;;;;;5064857;28;19928;-50
2021/11/15 06:46:16;;;;;;;;;;;;;;;;;;5063760;28;19963;-45
2021/11/15 06:48:42;;;;;;;;;;;;;;;;;;5047951;28;20351;-49
2021/11/15 06:51:08;;;;;;;;;;;;;;;;;;5052903;28;19928;-48
2021/11/15 06:53:35;;;;;;;;;;;;;;;;;;5065147;28;19991;-49
2021/11/15 06:56:01;;;;;;;;;;;;;;;;;;5065308;28;20005;-49
2021/11/15 06:58:27;;;;;;;;;;;;;;;;;;5065793;28;19923;-47
2021/11/15 07:00:53;;;;;;;;;;;;;;;;;;5057688;28;20314;-48
2021/11/15 07:03:19;;;;;;;;;;;;;;;;;;5048526;28;19917;-48
2021/11/15 07:05:45;;;;;;;;;;;;;;;;;;5058411;28;19920;-49
2021/11/15 07:08:11;;;;;;;;;;;;;;;;;;5045501;28;19912;-47
2021/11/15 07:10:37;;;;;;;;;;;;;;;;;;5046502;28;19913;-48
2021/11/15 07:13:03;;;;;;;;;;;;;;;;;;5046419;28;20007;-48
2021/11/15 07:15:29;;;;;;;;;;;;;;;;;;5045820;28;20422;-48
2021/11/15 07:17:55;;;;;;;;;;;;;;;;;;5045147;28;19917;-48
2021/11/15 07:20:21;;;;;;;;;;;;;;;;;;5062941;28;19922;-48
2021/11/15 07:22:48;;;;;;;;;;;;;;;;;;5055772;28;19913;-48
2021/11/15 07:25:14;;;;;;;;;;;;;;;;;;5058810;28;19912;-45
2021/11/15 07:27:40;;;;;;;;;;;;;;;;;;5054864;28;19912;-46
2021/11/15 07:30:06;;;;;;;;;;;;;;;;;;5052602;28;19920;-46
2021/11/15 07:32:32;;;;;;;;;;;;;;;;;;5048866;28;20010;-48
2021/11/15 07:34:58;;;;;;;;;;;;;;;;;;5049311;28;19912;-48
2021/11/15 07:37:24;;;;;;;;;;;;;;;;;;5048986;28;19913;-49
2021/11/15 07:39:50;;;;;;;;;;;;;;;;;;5049370;28;19908;-46
2021/11/15 07:42:16;;;;;;;;;;;;;;;;;;5049231;28;20023;-47
2021/11/15 07:44:43;;;;;;;;;;;;;;;;;;5047777;28;20466;-48
2021/11/15 07:47:09;;;;;;;;;;;;;;;;;;5047579;28;20553;-45
2021/11/15 07:49:35;;;;;;;;;;;;;;;;;;5047639;28;19912;-48
2021/11/15 07:52:01;;;;;;;;;;;;;;;;;;5047309;28;20173;-46
2021/11/15 07:54:27;;;;;;;;;;;;;;;;;;5047244;28;20031;-46
2021/11/15 07:56:53;;;;;;;;;;;;;;;;;;5047729;28;20028;-49
2021/11/15 07:59:19;;;;;;;;;;;;;;;;;;5047015;28;19917;-47
2021/11/15 08:01:45;;;;;;;;;;;;;;;;;;5046303;28;19962;-48
2021/11/15 08:04:11;;;;;;;;;;;;;;;;;;5047405;28;20350;-46
2021/11/15 08:06:36;;;;;;;;;;;;;;;;;;5047879;28;19909;-45
2021/11/15 08:09:02;;;;;;;;;;;;;;;;;;5047121;28;19916;-48
2021/11/15 08:11:29;;;;;;;;;;;;;;;;;;5046754;28;20400;-47
2021/11/15 08:13:55;;;;;;;;;;;;;;;;;;5047077;28;19944;-46
2021/11/15 08:16:22;;;;;;;;;;;;;;;;;;5046796;28;20425;-47
2021/11/15 08:18:48;;;;;;;;;;;;;;;;;;5046868;28;19923;-46
2021/11/15 08:21:18;;;;;;;;;;;;;;;;;;5046714;28;19913;-48
2021/11/15 08:23:47;;;;;;;;;;;;;;;;;;5047025;28;19913;-45
2021/11/15 08:26:13;;;;;;;;;;;;;;;;;;5046772;28;19913;-48
2021/11/15 08:28:40;;;;;;;;;;;;;;;;;;5047313;28;19923;-47
2021/11/15 08:31:07;;;;;;;;;;;;;;;;;;5057987;28;19919;-47
2021/11/15 08:33:33;;;;;;;;;;;;;;;;;;5063535;28;19982;-49
2021/11/15 08:35:59;;;;;;;;;;;;;;;;;;5065431;28;19924;-46
2021/11/15 08:38:25;;;;;;;;;;;;;;;;;;5072377;28;19913;-48
2021/11/15 08:40:51;;;;;;;;;;;;;;;;;;5067922;28;20388;-47
2021/11/15 08:43:17;;;;;;;;;;;;;;;;;;5049755;28;19912;-49
2021/11/15 08:45:42;;;;;;;;;;;;;;;;;;5047635;28;19915;-45
2021/11/15 08:48:08;;;;;;;;;;;;;;;;;;5047886;28;19912;-46
2021/11/15 08:50:34;;;;;;;;;;;;;;;;;;5047543;28;19912;-45
2021/11/15 08:53:01;;;;;;;;;;;;;;;;;;5047283;28;19909;-47
2021/11/15 08:55:27;;;;;;;;;;;;;;;;;;5047511;28;19912;-47
2021/11/15 08:57:53;;;;;;;;;;;;;;;;;;5047658;28;19971;-48
2021/11/15 09:00:19;;;;;;;;;;;;;;;;;;5048312;28;20037;-49
2021/11/15 09:02:45;;;;;;;;;;;;;;;;;;5047744;28;19913;-50
2021/11/15 09:05:10;;;;;;;;;;;;;;;;;;5048071;28;19916;-48
2021/11/15 09:07:37;;;;;;;;;;;;;;;;;;5047661;28;19932;-45
2021/11/15 09:10:03;;;;;;;;;;;;;;;;;;5048559;28;19920;-47
2021/11/15 09:12:29;;;;;;;;;;;;;;;;;;5045623;28;19921;-49
2021/11/15 09:14:57;;;;;;;;;;;;;;;;;;5045654;28;20407;-49
2021/11/15 09:17:23;;;;;;;;;;;;;;;;;;5048645;28;19916;-48
2021/11/15 09:19:49;;;;;;;;;;;;;;;;;;5065873;28;20317;-48
2021/11/15 09:22:15;;;;;;;;;;;;;;;;;;5065633;28;20337;-49
2021/11/15 09:24:41;;;;;;;;;;;;;;;;;;5064698;28;19981;-49
2021/11/15 09:27:12;;;;;;;;;;;;;;;;;;5066390;28;20013;-47
2021/11/15 09:29:38;;;;;;;;;;;;;;;;;;5056324;28;20439;-49
2021/11/15 09:32:04;;;;;;;;;;;;;;;;;;5047447;28;20007;-49
2021/11/15 09:34:30;;;;;;;;;;;;;;;;;;5054821;28;20529;-47
2021/11/15 09:36:56;;;;;;;;;;;;;;;;;;5060215;28;19912;-49
2021/11/15 09:39:24;;;;;;;;;;;;;;;;;;5052731;28;19924;-50
2021/11/15 09:41:49;;;;;;;;;;;;;;;;;;5055507;28;20392;-49
2021/11/15 09:44:15;;;;;;;;;;;;;;;;;;5045003;28;19916;-48
2021/11/15 09:46:41;;;;;;;;;;;;;;;;;;5051801;28;19912;-47
2021/11/15 09:49:11;;;;;;;;;;;;;;;;;;5066273;28;20395;-47
2021/11/15 09:51:37;;;;;;;;;;;;;;;;;;5056628;28;19920;-49
2021/11/15 09:54:03;;;;;;;;;;;;;;;;;;5067516;28;20272;-47
2021/11/15 09:56:29;;;;;;;;;;;;;;;;;;5066731;28;19913;-47
2021/11/15 09:58:55;;;;;;;;;;;;;;;;;;5065664;28;19913;-48
2021/11/15 10:01:21;;;;;;;;;;;;;;;;;;5062702;28;19920;-50
2021/11/15 10:03:47;;;;;;;;;;;;;;;;;;5045821;28;19915;-49
2021/11/15 10:06:13;;;;;;;;;;;;;;;;;;5045426;28;19908;-46
2021/11/15 10:08:39;;;;;;;;;;;;;;;;;;5066338;28;19917;-45
2021/11/15 10:11:05;;;;;;;;;;;;;;;;;;5065933;28;19928;-45
2021/11/15 10:13:31;;;;;;;;;;;;;;;;;;5065155;28;19963;-45
2021/11/15 10:15:57;;;;;;;;;;;;;;;;;;5063169;28;19912;-47
2021/11/15 10:18:23;;;;;;;;;;;;;;;;;;5045909;28;20053;-47
2021/11/15 10:20:50;;;;;;;;;;;;;;;;;;5045658;28;20189;-46
2021/11/15 10:23:16;;;;;;;;;;;;;;;;;;5054507;28;20003;-49
2021/11/15 10:25:42;;;;;;;;;;;;;;;;;;5067273;28;20015;-47
2021/11/15 10:28:08;;;;;;;;;;;;;;;;;;5067433;28;19919;-47
2021/11/15 10:30:34;;;;;;;;;;;;;;;;;;5066783;28;19919;-47
2021/11/15 10:33:00;;;;;;;;;;;;;;;;;;5065483;28;19913;-47
2021/11/15 10:35:26;;;;;;;;;;;;;;;;;;5057395;28;19920;-47
2021/11/15 10:37:52;;;;;;;;;;;;;;;;;;5050337;28;19917;-49
2021/11/15 10:40:26;;;;;;;;;;;;;;;;;;5050836;28;19986;-46
2021/11/15 10:42:52;;;;;;;;;;;;;;;;;;5050738;28;19917;-47
2021/11/15 10:45:19;;;;;;;;;;;;;;;;;;5064502;28;19973;-44
2021/11/15 10:47:45;;;;;;;;;;;;;;;;;;5063644;28;19936;-47
2021/11/15 10:50:18;;;;;;;;;;;;;;;;;;5061303;28;19920;-46
2021/11/15 10:52:44;;;;;;;;;;;;;;;;;;5049267;28;19917;-47
2021/11/15 10:55:10;;;;;;;;;;;;;;;;;;5059211;28;20524;-45
2021/11/15 10:57:36;;;;;;;;;;;;;;;;;;5057058;28;20290;-45
2021/11/15 11:00:02;;;;;;;;;;;;;;;;;;5056250;28;20455;-46
2021/11/15 11:02:28;;;;;;;;;;;;;;;;;;5053976;28;19923;-49
2021/11/15 11:04:55;;;;;;;;;;;;;;;;;;5050937;28;19913;-50
2021/11/15 11:07:21;;;;;;;;;;;;;;;;;;5057265;28;19916;-50
2021/11/15 11:09:47;;;;;;;;;;;;;;;;;;5068469;28;19920;-46
2021/11/15 11:12:15;;;;;;;;;;;;;;;;;;5050656;28;20391;-47
2021/11/15 11:14:42;;;;;;;;;;;;;;;;;;5055549;28;19943;-51
2021/11/15 11:17:08;;;;;;;;;;;;;;;;;;5054814;28;19913;-49
2021/11/15 11:19:46;;;;;;;;;;;;;;;;;;5049529;28;19913;-51
2021/11/15 11:22:37;;;;;;;;;;;;;;;;;;5049558;28;19916;-48
2021/11/15 11:27:30;;;;;;;;;;;;;;;;;;5048857;28;19916;-49
2021/11/15 11:29:56;;;;;;;;;;;;;;;;;;5064818;28;19916;-50
2021/11/15 11:32:22;;;;;;;;;;;;;;;;;;5049147;28;19909;-48
2021/11/15 11:34:48;;;;;;;;;;;;;;;;;;5066000;28;19920;-46
2021/11/15 11:37:14;;;;;;;;;;;;;;;;;;5053012;28;19934;-48
2021/11/15 11:39:40;;;;;;;;;;;;;;;;;;5069139;28;20541;-50
2021/11/15 11:42:06;;;;;;;;;;;;;;;;;;5050414;28;19952;-50
2021/11/15 11:44:32;;;;;;;;;;;;;;;;;;5049202;28;19912;-51
2021/11/15 11:46:58;;;;;;;;;;;;;;;;;;5050758;28;20299;-51
2021/11/15 11:49:25;;;;;;;;;;;;;;;;;;5048988;28;19908;-50
2021/11/15 11:51:51;;;;;;;;;;;;;;;;;;5061074;28;19917;-47
2021/11/15 11:54:17;;;;;;;;;;;;;;;;;;5062576;28;19913;-47
2021/11/15 11:56:43;;;;;;;;;;;;;;;;;;5062741;28;19921;-47
2021/11/15 11:59:09;;;;;;;;;;;;;;;;;;5059309;28;19932;-50
2021/11/15 12:01:36;;;;;;;;;;;;;;;;;;5067627;28;20365;-50
2021/11/15 12:04:02;;;;;;;;;;;;;;;;;;5066279;28;20011;-50
2021/11/15 12:06:28;;;;;;;;;;;;;;;;;;5067331;28;19947;-48
2021/11/15 12:08:54;;;;;;;;;;;;;;;;;;5067422;28;19908;-51
2021/11/15 12:11:20;;;;;;;;;;;;;;;;;;5066815;28;19921;-50
2021/11/15 12:13:46;;;;;;;;;;;;;;;;;;5066929;28;20384;-47
2021/11/15 12:16:15;;;;;;;;;;;;;;;;;;5066934;28;19909;-46
2021/11/15 12:18:40;;;;;;;;;;;;;;;;;;5067748;28;20153;-51
2021/11/15 12:21:10;;;;;;;;;;;;;;;;;;5067126;28;20318;-51
2021/11/15 12:23:36;;;;;;;;;;;;;;;;;;5067367;28;19920;-47
2021/11/15 12:26:03;;;;;;;;;;;;;;;;;;5067004;28;19908;-49
2021/11/15 12:28:29;;;;;;;;;;;;;;;;;;5066599;28;19916;-47
2021/11/15 12:30:57;;;;;;;;;;;;;;;;;;5067100;28;19912;-50
2021/11/15 12:33:24;;;;;;;;;;;;;;;;;;5066755;28;20389;-47
2021/11/15 12:35:50;;;;;;;;;;;;;;;;;;5066948;28;19909;-47
2021/11/15 12:38:16;;;;;;;;;;;;;;;;;;5066261;28;19927;-46
2021/11/15 12:40:43;;;;;;;;;;;;;;;;;;5066758;28;19909;-47
2021/11/15 12:43:09;;;;;;;;;;;;;;;;;;5067507;28;19912;-49
2021/11/15 12:45:35;;;;;;;;;;;;;;;;;;5066418;28;20170;-47
2021/11/15 12:48:01;;;;;;;;;;;;;;;;;;5066522;28;19924;-47
2021/11/15 12:50:27;;;;;;;;;;;;;;;;;;5066525;28;19955;-50
2021/11/15 12:52:52;;;;;;;;;;;;;;;;;;5066405;28;19915;-48
2021/11/15 12:55:18;;;;;;;;;;;;;;;;;;5066306;28;20389;-51
2021/11/15 12:57:45;;;;;;;;;;;;;;;;;;5066305;28;19913;-48
2021/11/15 13:00:11;;;;;;;;;;;;;;;;;;5066697;28;19999;-49
2021/11/15 13:02:37;;;;;;;;;;;;;;;;;;5067076;28;19904;-51
2021/11/15 13:05:03;;;;;;;;;;;;;;;;;;5066715;28;19947;-50
2021/11/15 13:07:29;;;;;;;;;;;;;;;;;;5066072;28;20303;-48
2021/11/15 13:09:55;;;;;;;;;;;;;;;;;;5066306;28;19909;-52
2021/11/15 13:12:21;;;;;;;;;;;;;;;;;;5065578;28;19920;-48
2021/11/15 13:14:47;;;;;;;;;;;;;;;;;;5066226;28;19913;-48
2021/11/15 13:17:16;;;;;;;;;;;;;;;;;;5065783;28;19905;-50
2021/11/15 13:19:42;;;;;;;;;;;;;;;;;;5066303;28;20310;-47
2021/11/15 13:22:08;;;;;;;;;;;;;;;;;;5066618;28;19908;-50
2021/11/15 13:24:35;;;;;;;;;;;;;;;;;;5064118;28;20633;-51
2021/11/15 13:27:01;;;;;;;;;;;;;;;;;;5065815;28;20570;-47
2021/11/15 13:29:27;;;;;;;;;;;;;;;;;;5065734;28;19909;-49
2021/11/15 13:31:58;;;;;;;;;;;;;;;;;;5065921;28;20382;-50
2021/11/15 13:34:23;;;;;;;;;;;;;;;;;;5065694;28;20394;-47
2021/11/15 13:36:49;;;;;;;;;;;;;;;;;;5065848;28;19912;-49
2021/11/15 13:39:15;;;;;;;;;;;;;;;;;;5065307;28;19970;-48
2021/11/15 13:41:41;;;;;;;;;;;;;;;;;;5066016;28;20288;-50
2021/11/15 13:44:08;;;;;;;;;;;;;;;;;;5064775;28;19944;-47
2021/11/15 13:46:35;;;;;;;;;;;;;;;;;;5065126;28;19915;-51
2021/11/15 13:49:01;;;;;;;;;;;;;;;;;;5065612;28;20365;-50
2021/11/15 13:51:27;;;;;;;;;;;;;;;;;;5065361;28;20520;-51
2021/11/15 13:53:53;;;;;;;;;;;;;;;;;;5065438;28;19912;-50
2021/11/15 13:56:19;;;;;;;;;;;;;;;;;;5065073;28;19912;-49
2021/11/15 13:58:45;;;;;;;;;;;;;;;;;;5065300;28;20371;-48
2021/11/15 14:01:10;;;;;;;;;;;;;;;;;;5065826;28;19919;-46
2021/11/15 14:03:37;;;;;;;;;;;;;;;;;;5065236;28;19935;-50
2021/11/15 14:06:03;;;;;;;;;;;;;;;;;;5065456;28;19913;-47
2021/11/15 14:08:29;;;;;;;;;;;;;;;;;;5064875;28;20284;-50
2021/11/15 14:10:56;;;;;;;;;;;;;;;;;;5064924;28;19913;-50
2021/11/15 14:13:22;;;;;;;;;;;;;;;;;;5065067;28;19912;-49
2021/11/15 14:15:48;;;;;;;;;;;;;;;;;;5065408;28;19916;-49
2021/11/15 14:18:14;;;;;;;;;;;;;;;;;;5064804;28;19920;-48
2021/11/15 14:20:40;;;;;;;;;;;;;;;;;;5065936;28;19916;-48
2021/11/15 14:23:06;;;;;;;;;;;;;;;;;;5064959;28;19913;-50
2021/11/15 14:25:31;;;;;;;;;;;;;;;;;;5064674;28;19966;-51
2021/11/15 14:27:57;;;;;;;;;;;;;;;;;;5065252;28;20441;-49
2021/11/15 14:30:23;;;;;;;;;;;;;;;;;;5064875;28;19909;-46
2021/11/15 14:32:49;;;;;;;;;;;;;;;;;;5065080;28;20030;-51
2021/11/15 14:35:15;;;;;;;;;;;;;;;;;;5064862;28;19981;-48
2021/11/15 14:37:42;;;;;;;;;;;;;;;;;;5069552;28;19926;-48
2021/11/15 14:40:08;;;;;;;;;;;;;;;;;;5069693;28;19909;-47
2021/11/15 14:42:35;;;;;;;;;;;;;;;;;;5068622;28;19905;-48
2021/11/15 14:45:01;;;;;;;;;;;;;;;;;;5069201;28;19913;-49
2021/11/15 14:47:27;;;;;;;;;;;;;;;;;;5068404;28;20157;-48
2021/11/15 14:49:53;;;;;;;;;;;;;;;;;;5068903;28;19919;-51
2021/11/15 14:52:19;;;;;;;;;;;;;;;;;;5068453;28;19909;-48
2021/11/15 14:54:44;;;;;;;;;;;;;;;;;;5068553;28;20631;-49
2021/11/15 14:57:12;;;;;;;;;;;;;;;;;;5069276;28;19971;-47
2021/11/15 14:59:39;;;;;;;;;;;;;;;;;;5069351;28;19913;-47
2021/11/15 15:02:04;;;;;;;;;;;;;;;;;;5068571;28;20402;-48
2021/11/15 15:04:30;;;;;;;;;;;;;;;;;;5068335;28;19913;-47
2021/11/15 15:06:56;;;;;;;;;;;;;;;;;;5068574;28;20010;-47
2021/11/15 15:09:22;;;;;;;;;;;;;;;;;;5068469;28;20456;-47
2021/11/15 15:11:49;;;;;;;;;;;;;;;;;;5068303;28;20311;-48
2021/11/15 15:14:15;;;;;;;;;;;;;;;;;;5068313;28;19916;-46
2021/11/15 15:16:41;;;;;;;;;;;;;;;;;;5069055;28;19913;-47
2021/11/15 15:19:16;;;;;;;;;;;;;;;;;;5068987;28;19939;-50
2021/11/15 15:21:42;;;;;;;;;;;;;;;;;;5068325;28;20311;-46
2021/11/15 15:24:09;;;;;;;;;;;;;;;;;;5069404;28;19908;-47
2021/11/15 15:26:35;;;;;;;;;;;;;;;;;;5065943;28;19983;-48
2021/11/15 15:29:01;;;;;;;;;;;;;;;;;;5051467;28;20078;-48
2021/11/15 15:31:27;;;;;;;;;;;;;;;;;;5064235;28;20021;-50
2021/11/15 15:33:53;;;;;;;;;;;;;;;;;;5069650;28;19951;-50
2021/11/15 15:36:20;;;;;;;;;;;;;;;;;;5069400;28;19981;-50
2021/11/15 15:38:46;;;;;;;;;;;;;;;;;;5054943;28;19916;-49
2021/11/15 15:41:12;;;;;;;;;;;;;;;;;;5054913;28;19923;-47
2021/11/15 15:43:38;;;;;;;;;;;;;;;;;;5050093;28;19909;-47
2021/11/15 15:46:04;;;;;;;;;;;;;;;;;;5079376;28;20434;-47
2021/11/15 15:48:34;;;;;;;;;;;;;;;;;;5085600;28;19997;-47
2021/11/15 15:51:00;;;;;;;;;;;;;;;;;;5089483;28;19934;-51
2021/11/15 15:53:26;;;;;;;;;;;;;;;;;;5089333;28;19914;-48
2021/11/15 15:55:52;;;;;;;;;;;;;;;;;;5066252;28;19916;-49
2021/11/15 15:58:25;;;;;;;;;;;;;;;;;;5049487;28;19970;-50
2021/11/15 16:00:51;;;;;;;;;;;;;;;;;;5052525;28;19923;-50
2021/11/15 16:03:21;;;;;;;;;;;;;;;;;;5061441;28;19912;-48
2021/11/15 16:06:14;;;;;;;;;;;;;;;;;;5066729;28;19920;-50
2021/11/15 16:09:00;;;;;;;;;;;;;;;;;;5064015;28;19924;-50
2021/11/15 16:17:14;;;;;;;;;;;;;;;;;;5048851;28;19916;-47
2021/11/15 16:19:40;;;;;;;;;;;;;;;;;;5058185;28;19995;-50
2021/11/15 16:22:06;;;;;;;;;;;;;;;;;;5048105;28;19992;-48
2021/11/15 16:24:32;;;;;;;;;;;;;;;;;;5047954;28;19948;-50
2021/11/15 16:26:58;;;;;;;;;;;;;;;;;;5054824;28;19916;-47
2021/11/15 16:29:24;;;;;;;;;;;;;;;;;;5066341;28;19908;-50
2021/11/15 16:31:50;;;;;;;;;;;;;;;;;;5052744;28;19917;-48
2021/11/15 16:34:16;;;;;;;;;;;;;;;;;;5046080;28;19959;-46
2021/11/15 16:36:42;;;;;;;;;;;;;;;;;;5046472;28;20693;-47
2021/11/15 16:39:09;;;;;;;;;;;;;;;;;;5046651;28;19917;-48
2021/11/15 16:41:35;;;;;;;;;;;;;;;;;;5046015;28;20022;-46
2021/11/15 16:44:02;;;;;;;;;;;;;;;;;;5044631;28;19934;-47
2021/11/15 16:46:28;;;;;;;;;;;;;;;;;;5046927;28;19916;-47
2021/11/15 16:48:54;;;;;;;;;;;;;;;;;;5045431;28;20030;-47